This is the latest recevied weather packets stored in our database for station/object N8DMH-13. If no packets are shown the sender has not sent any weather packets the latest 1 day(s).
| Time | Temp. | Humidity | Pressure | Rain* | Wind** | Luminosity | Snow |
|---|---|---|---|---|---|---|---|
| 1778115462 | 4.44° C | 67% | 1013.7 hPa | 0 mm | - | - | - |
| 1778114831 | 5° C | 65% | 1013.5 hPa | 0 mm | - | - | - |
| 1778114531 | 5° C | 64% | 1013.4 hPa | 0 mm | - | - | - |
| 1778114231 | 5° C | 64% | 1013.3 hPa | 0 mm | - | - | - |
| 1778113901 | 5.56° C | 63% | 1013.3 hPa | 0 mm | - | - | - |
| 1778113602 | 5.56° C | 63% | 1013.3 hPa | 0 mm | - | - | - |
| 1778113271 | 5.56° C | 63% | 1013.3 hPa | 0 mm | - | - | - |
| 1778112941 | 5.56° C | 63% | 1013.3 hPa | 0 mm | - | - | - |
| 1778109790 | 5.56° C | 63% | 1013 hPa | 0 mm | - | - | - |
| 1778109490 | 5.56° C | 63% | 1013 hPa | 0 mm | - | - | - |
| 1778107239 | 6.11° C | 63% | 1013.2 hPa | 0 mm | - | - | - |
| 1778106639 | 6.67° C | 62% | 1013.2 hPa | 0 mm | - | - | - |
| 1778103819 | 7.22° C | 61% | 1012.9 hPa | 0 mm | - | - | - |
| 1778103188 | 7.22° C | 60% | 1012.7 hPa | 0 mm | - | - | - |
| 1778100997 | 7.78° C | 58% | 1012.6 hPa | 0 mm | - | - | - |
| 1778098146 | 7.78° C | 56% | 1012.7 hPa | 0 mm | - | - | - |
| 1778097216 | 8.33° C | 54% | 1012.8 hPa | 0 mm | - | - | - |
| 1778096586 | 8.89° C | 52% | 1012.8 hPa | 0 mm | - | - | - |
| 1778095025 | 8.89° C | 49% | 1012.9 hPa | 0 mm | - | - | - |
| 1778091904 | 8.89° C | 47% | 1013.3 hPa | 0 mm | - | - | - |
| 1778089713 | 7.22° C | 50% | 1013.5 hPa | 0 mm | - | - | - |
| 1778089083 | 7.78° C | 49% | 1013.6 hPa | 0 mm | - | - | - |
| 1778088783 | 7.78° C | 49% | 1013.6 hPa | 0 mm | - | - | - |
| 1778087492 | 7.22° C | 50% | 1013.8 hPa | 0 mm | - | - | - |
| 1778086862 | 7.22° C | 48% | 1013.9 hPa | 0 mm | - | - | - |
* Rain latest hour (hover to see other rain measurements)
** Current wind speed in m/s (hover to see current wind gust speed)